Da Chang — VRMA4 — position and weather

sailwx.info

Track history (hours):
 
Tides and Currents Weather Stations Pressure Air Temp Water Temp Dewpoint Dewpoint Depression Visibility Wind Speed Wind Dir Waves Ship Positions

Da Chang

Last reported at 2018-Apr-19 07:24 UTC. Time now 2018-Apr-20 05:08 UTC.
Position N 22°47' E 117°15'.

Length 180 m; draft 7.8 m.

Type: Cargo ship. MMSI: 477592500.

Date/timePositionNaut miles runAvg speedWind from/ knotsBaromVisibWave heightAir tempDewpointWater temp
2018-Apr-19 07:24N 22°47' E 117°15'1014.8
2018-Apr-19 06:43N 22°57' E 117°18'514.6
2018-Apr-19 06:22N 23°01' E 117°21'614.5
2018-Apr-19 05:58N 23°05' E 117°26'614.4
2018-Apr-19 05:30N 23°09' E 117°32'714.1
2018-Apr-19 05:00N 23°13' E 117°38'813.8
2018-Apr-19 04:27N 23°16' E 117°45'613.6
2018-Apr-19 04:00N 23°19' E 117°51'713.4
2018-Apr-19 03:31N 23°22' E 117°57'713.4
2018-Apr-19 03:00N 23°26' E 118°04'813.4
2018-Apr-19 02:22N 23°31' E 118°12'513.6
2018-Apr-19 02:00N 23°34' E 118°15'813.9
2018-Apr-19 01:28N 23°40' E 118°21'614.1
2018-Apr-19 01:00N 23°44' E 118°26'714.1
2018-Apr-19 00:30N 23°49' E 118°32'714.2
2018-Apr-18 23:59N 23°54' E 118°37'714.2
2018-Apr-18 23:29N 23°59' E 118°43'714.3
2018-Apr-18 23:00N 24°04' E 118°48'1614.7
2018-Apr-18 21:56N 24°16' E 118°60'1114.7
2018-Apr-18 21:10N 24°24' E 119°08'1815.0
2018-Apr-18 19:59N 24°36' E 119°22'2014.3
2018-Apr-18 18:34N 24°49' E 119°40'113.7
2018-Apr-18 18:30N 24°49' E 119°40'42914.0
2018-Apr-17 11:49N 31°11' E 123°24'4113.1
2018-Apr-17 08:41N 31°52' E 123°23'39412.9
2018-Apr-16 02:05N 38°15' E 121°35'114.4
2018-Apr-16 02:00N 38°16' E 121°34'814.3
2018-Apr-16 01:28N 38°20' E 121°25'1514.7
2018-Apr-16 00:26N 38°26' E 121°08'1614.4
2018-Apr-15 23:21N 38°33' E 120°50'1015.4
2018-Apr-15 22:43N 38°34' E 120°38'315.6
2018-Apr-15 22:30N 38°35' E 120°34'815.5
2018-Apr-15 22:00N 38°36' E 120°24'815.5
2018-Apr-15 21:30N 38°37' E 120°14'815.4
2018-Apr-15 21:00N 38°37' E 120°04'915.3
2018-Apr-15 20:26N 38°38' E 119°53'614.9
2018-Apr-15 20:00N 38°38' E 119°45'  
2018-Apr-13 13:34N 38°31' E 121°09'213.8
2018-Apr-13 13:28N 38°30' E 121°11'713.4
2018-Apr-13 12:58N 38°30' E 121°19'915.0
2018-Apr-13 12:21N 38°30' E 121°31'615.2
2018-Apr-13 11:59N 38°30' E 121°38'612.3
2018-Apr-13 11:30N 38°34' E 121°44'714.5
2018-Apr-13 11:01N 38°41' E 121°45'714.7
2018-Apr-13 10:31N 38°48' E 121°45'812.3
2018-Apr-13 09:54N 38°56' E 121°46'411.4
2018-Apr-13 09:30N 39°00' E 121°46'1 0.9
2018-Apr-13 08:55N 39°01' E 121°45'0 0.0
2018-Apr-13 08:25N 39°01' E 121°45'0 0.0
2018-Apr-13 07:49N 39°01' E 121°45'0 0.0
2018-Apr-13 07:25N 39°01' E 121°45'  
2018-Apr-10 15:32N 39°01' E 121°45'0 0.9
2018-Apr-10 15:25N 39°01' E 121°45'2 4.5
2018-Apr-10 14:55N 38°59' E 121°47'4 8.2
2018-Apr-10 14:24N 38°54' E 121°47'3 8.8
2018-Apr-10 14:00N 38°51' E 121°47'5 9.4
2018-Apr-10 13:30N 38°47' E 121°50'714.8
2018-Apr-10 13:00N 38°42' E 121°57'715.3
2018-Apr-10 12:31N 38°37' E 122°04'714.4
2018-Apr-10 12:00N 38°31' E 122°10'713.7
2018-Apr-10 11:30N 38°27' E 122°16'914.0
2018-Apr-10 10:54N 38°21' E 122°24'613.9
2018-Apr-10 10:26N 38°16' E 122°30'2314.3
2018-Apr-10 08:50N 37°60' E 122°50'  
Track history (hours):
 
Tides and Currents Weather Stations Pressure Air Temp Water Temp Dewpoint Dewpoint Depression Visibility Wind Speed Wind Dir Waves Ship Positions

Da Chang

Last reported at 2018-Apr-19 07:24 UTC. Time now 2018-Apr-20 05:08 UTC.
Position N 22°47' E 117°15'.

Length 180 m; draft 7.8 m.

Type: Cargo ship. MMSI: 477592500.

Date/timePositionNaut miles runAvg speedWind from/ knotsBaromVisibWave heightAir tempDewpointWater temp
2018-Apr-19 07:24N 22°47' E 117°15'1014.8
2018-Apr-19 06:43N 22°57' E 117°18'514.6
2018-Apr-19 06:22N 23°01' E 117°21'614.5
2018-Apr-19 05:58N 23°05' E 117°26'614.4
2018-Apr-19 05:30N 23°09' E 117°32'714.1
2018-Apr-19 05:00N 23°13' E 117°38'813.8
2018-Apr-19 04:27N 23°16' E 117°45'613.6
2018-Apr-19 04:00N 23°19' E 117°51'713.4
2018-Apr-19 03:31N 23°22' E 117°57'713.4
2018-Apr-19 03:00N 23°26' E 118°04'813.4
2018-Apr-19 02:22N 23°31' E 118°12'513.6
2018-Apr-19 02:00N 23°34' E 118°15'813.9
2018-Apr-19 01:28N 23°40' E 118°21'614.1
2018-Apr-19 01:00N 23°44' E 118°26'714.1
2018-Apr-19 00:30N 23°49' E 118°32'714.2
2018-Apr-18 23:59N 23°54' E 118°37'714.2
2018-Apr-18 23:29N 23°59' E 118°43'714.3
2018-Apr-18 23:00N 24°04' E 118°48'1614.7
2018-Apr-18 21:56N 24°16' E 118°60'1114.7
2018-Apr-18 21:10N 24°24' E 119°08'1815.0
2018-Apr-18 19:59N 24°36' E 119°22'2014.3
2018-Apr-18 18:34N 24°49' E 119°40'113.7
2018-Apr-18 18:30N 24°49' E 119°40'42914.0
2018-Apr-17 11:49N 31°11' E 123°24'4113.1
2018-Apr-17 08:41N 31°52' E 123°23'39412.9
2018-Apr-16 02:05N 38°15' E 121°35'114.4
2018-Apr-16 02:00N 38°16' E 121°34'814.3
2018-Apr-16 01:28N 38°20' E 121°25'1514.7
2018-Apr-16 00:26N 38°26' E 121°08'1614.4
2018-Apr-15 23:21N 38°33' E 120°50'1015.4
2018-Apr-15 22:43N 38°34' E 120°38'315.6
2018-Apr-15 22:30N 38°35' E 120°34'815.5
2018-Apr-15 22:00N 38°36' E 120°24'815.5
2018-Apr-15 21:30N 38°37' E 120°14'815.4
2018-Apr-15 21:00N 38°37' E 120°04'915.3
2018-Apr-15 20:26N 38°38' E 119°53'614.9
2018-Apr-15 20:00N 38°38' E 119°45'  
2018-Apr-13 13:34N 38°31' E 121°09'213.8
2018-Apr-13 13:28N 38°30' E 121°11'713.4
2018-Apr-13 12:58N 38°30' E 121°19'915.0
2018-Apr-13 12:21N 38°30' E 121°31'615.2
2018-Apr-13 11:59N 38°30' E 121°38'612.3
2018-Apr-13 11:30N 38°34' E 121°44'714.5
2018-Apr-13 11:01N 38°41' E 121°45'714.7
2018-Apr-13 10:31N 38°48' E 121°45'812.3
2018-Apr-13 09:54N 38°56' E 121°46'411.4
2018-Apr-13 09:30N 39°00' E 121°46'1 0.9
2018-Apr-13 08:55N 39°01' E 121°45'0 0.0
2018-Apr-13 08:25N 39°01' E 121°45'0 0.0
2018-Apr-13 07:49N 39°01' E 121°45'0 0.0
2018-Apr-13 07:25N 39°01' E 121°45'  
2018-Apr-10 15:32N 39°01' E 121°45'0 0.9
2018-Apr-10 15:25N 39°01' E 121°45'2 4.5
2018-Apr-10 14:55N 38°59' E 121°47'4 8.2
2018-Apr-10 14:24N 38°54' E 121°47'3 8.8
2018-Apr-10 14:00N 38°51' E 121°47'5 9.4
2018-Apr-10 13:30N 38°47' E 121°50'714.8
2018-Apr-10 13:00N 38°42' E 121°57'715.3
2018-Apr-10 12:31N 38°37' E 122°04'714.4
2018-Apr-10 12:00N 38°31' E 122°10'713.7
2018-Apr-10 11:30N 38°27' E 122°16'914.0
2018-Apr-10 10:54N 38°21' E 122°24'613.9
2018-Apr-10 10:26N 38°16' E 122°30'2314.3
2018-Apr-10 08:50N 37°60' E 122°50'  

Dump ship's entire track history